Погода Пилатовщинана 2 недели

Витебская область, Белоруссия

21 мая-03 июня
  • 21мая
    Сегодня
    +11°
    +25°
    Практически безоблачно
    ВремяПогодаТемператураВлажностьДавлениеВетер, м/сВероятность осадков
    00:00Ясно и безоблачно+13°C91 %752 мм0.6 м/с2 %
    03:00Ясно и безоблачно+11°C96 %752 мм0.6 м/с2 %
    06:00Ясно и безоблачно+12°C96 %753 мм0.8 м/с2 %
    09:00Ясно и безоблачно+20°C73 %754 мм1.5 м/с2 %
    12:00Ясно и безоблачно+24°C52 %754 мм2.0 м/с1 %
    15:00Практически безоблачно+24°C49 %754 мм1.9 м/с5 %
    18:00Небольшая облачность, ливень+22°C73 %754 мм2.2 м/с39 %
    21:00Небольшая облачность+18°C81 %754 мм1.7 м/с8 %
  • 22мая
    Среда
    +12°
    +25°
    Пасмурно, дожди с грозами
    ВремяПогодаТемператураВлажностьДавлениеВетер, м/сВероятность осадков
    00:00Ясно и безоблачно+14°C88 %754 мм1.3 м/с1 %
    03:00Ясно и безоблачно+13°C92 %755 мм1.1 м/с2 %
    06:00Ясно и безоблачно+12°C85 %755 мм1.5 м/с1 %
    09:00Ясно и безоблачно+18°C75 %755 мм2.2 м/с1 %
    12:00Практически безоблачно+23°C62 %755 мм2.5 м/с8 %
    15:00Пасмурно, дожди с грозами+24°C51 %754 мм2.4 м/с42 %
    18:00Небольшая облачность, возможен дождь с грозой+24°C65 %755 мм2.6 м/с59 %
    21:00Практически безоблачно+19°C77 %755 мм1.5 м/с14 %
  • 23мая
    Четверг
    +11°
    +25°
    Ясно и безоблачно
    ВремяПогодаТемператураВлажностьДавлениеВетер, м/сВероятность осадков
    00:00Ясно и безоблачно+15°C89 %756 мм1.3 м/с2 %
    03:00Ясно и безоблачно+13°C93 %756 мм1.2 м/с1 %
    06:00Ясно и безоблачно+14°C78 %757 мм1.6 м/с2 %
    09:00Ясно и безоблачно+19°C61 %758 мм2.7 м/с2 %
    12:00Ясно и безоблачно+23°C44 %758 мм3.2 м/с12 %
    15:00Ясно и безоблачно+24°C42 %758 мм3.0 м/с16 %
    18:00Ясно и безоблачно+24°C43 %757 мм3.2 м/с11 %
    21:00Ясно и безоблачно+19°C54 %758 мм2.1 м/с5 %
  • 24мая
    Пятница
    +10°
    +25°
    Ясно и безоблачно
    ВремяПогодаТемператураВлажностьДавлениеВетер, м/сВероятность осадков
    00:00Ясно и безоблачно+15°C61 %759 мм1.8 м/с2 %
    03:00Ясно и безоблачно+13°C68 %760 мм1.6 м/с2 %
    06:00Ясно и безоблачно+12°C69 %760 мм1.8 м/с2 %
    09:00Ясно и безоблачно+18°C59 %761 мм2.5 м/с2 %
    12:00Ясно и безоблачно+23°C49 %761 мм2.8 м/с2 %
    15:00Ясно и безоблачно+24°C46 %761 мм2.7 м/с6 %
    18:00Небольшая облачность+25°C48 %760 мм2.7 м/с13 %
    21:00Ясно и безоблачно+19°C60 %760 мм1.7 м/с5 %
  • 25мая
    Суббота
    +11°
    +27°
    Практически безоблачно
    ВремяПогодаТемператураВлажностьДавлениеВетер, м/сВероятность осадков
    00:00Ясно и безоблачно+15°C62 %761 мм1.4 м/с2 %
    03:00Ясно и безоблачно+11°C70 %761 мм1.0 м/с2 %
    06:00Ясно и безоблачно+11°C75 %761 мм1.4 м/с2 %
    09:00Ясно и безоблачно+19°C64 %761 мм2.1 м/с2 %
    12:00Практически безоблачно+24°C48 %761 мм2.6 м/с6 %
    15:00Практически безоблачно+26°C44 %760 мм2.4 м/с14 %
    18:00Ясно и безоблачно+26°C44 %759 мм2.2 м/с23 %
    21:00Ясно и безоблачно+20°C64 %759 мм1.3 м/с11 %
Мы используем cookies
Соглашаюсь